Time;durP1;ratioP1;P1;durP2;ratioP2;P2;SDS_P1;SDS_P2;PMS_P1;PMS_P2;Temp;Humidity;BMP_temperature;BMP_pressure;BME280_temperature;BME280_humidity;BME280_pressure;Samples;Min_cycle;Max_cycle;Signal;HPM_P1;HPM_P2
2022/04/13 00:00:42;;;;;;;10.55;4.57;;;14.50;99.90;;;;;;5094642;28;20552;-55
2022/04/13 00:03:07;;;;;;;12.50;4.90;;;14.40;99.90;;;;;;5094655;28;20226;-57
2022/04/13 00:05:33;;;;;;;12.88;4.55;;;14.40;99.90;;;;;;5093473;28;20692;-56
2022/04/13 00:08:00;;;;;;;12.00;4.22;;;14.20;99.90;;;;;;5094013;28;20173;-56
2022/04/13 00:10:26;;;;;;;14.05;4.30;;;14.30;99.90;;;;;;5076803;28;20197;-56
2022/04/13 00:12:51;;;;;;;11.27;3.88;;;14.30;99.90;;;;;;5094211;28;20252;-56
2022/04/13 00:15:17;;;;;;;10.88;3.58;;;14.30;99.90;;;;;;5094341;28;20166;-56
2022/04/13 00:17:43;;;;;;;7.82;3.88;;;14.30;99.90;;;;;;5094400;28;20173;-56
2022/04/13 00:20:09;;;;;;;12.85;4.28;;;14.30;99.90;;;;;;5094319;28;20168;-57
2022/04/13 00:22:35;;;;;;;17.13;7.43;;;14.30;99.90;;;;;;5094492;28;20264;-56
2022/04/13 00:25:00;;;;;;;12.30;6.30;;;14.20;99.90;;;;;;5094387;28;20288;-56
2022/04/13 00:27:26;;;;;;;9.95;4.25;;;14.20;99.90;;;;;;5094474;28;20567;-56
2022/04/13 00:29:52;;;;;;;9.52;4.90;;;14.20;99.90;;;;;;5094531;28;20265;-57
2022/04/13 00:32:17;;;;;;;11.82;4.55;;;14.20;99.90;;;;;;5094104;28;20614;-57
2022/04/13 00:34:42;;;;;;;16.80;7.97;;;14.20;99.90;;;;;;5093931;28;20537;-57
2022/04/13 00:37:08;;;;;;;13.40;4.60;;;14.20;99.90;;;;;;5093918;28;20196;-57
2022/04/13 00:39:34;;;;;;;14.07;4.97;;;14.20;99.90;;;;;;5094106;28;20206;-56
2022/04/13 00:42:05;;;;;;;9.93;3.80;;;14.20;99.90;;;;;;5093885;28;20237;-57
2022/04/13 00:44:31;;;;;;;8.68;3.03;;;14.20;99.90;;;;;;5093676;28;20213;-56
2022/04/13 00:47:01;;;;;;;10.02;3.80;;;14.10;99.90;;;;;;5093994;28;20308;-57
2022/04/13 00:49:26;;;;;;;8.68;3.17;;;14.10;99.90;;;;;;5094278;28;20165;-55
2022/04/13 00:51:52;;;;;;;6.93;3.22;;;14.10;99.90;;;;;;5093907;28;20245;-56
2022/04/13 00:54:19;;;;;;;4.65;2.85;;;14.10;99.90;;;;;;5093798;28;20245;-56
2022/04/13 00:56:49;;;;;;;6.03;3.53;;;14.10;99.90;;;;;;5093658;28;20687;-57
2022/04/13 00:59:15;;;;;;;8.38;3.03;;;14.10;99.90;;;;;;5093860;28;20180;-57
2022/04/13 01:01:47;;;;;;;7.28;3.05;;;14.10;99.90;;;;;;5093500;28;20173;-56
2022/04/13 01:04:14;;;;;;;8.35;2.90;;;14.10;99.90;;;;;;5093364;28;20722;-56
2022/04/13 01:06:41;;;;;;;8.55;2.90;;;14.10;99.90;;;;;;5093436;28;20231;-57
2022/04/13 01:09:07;;;;;;;7.43;3.28;;;14.00;99.90;;;;;;5093263;28;20256;-57
2022/04/13 01:11:33;;;;;;;11.68;3.53;;;14.00;99.90;;;;;;5093292;28;20195;-56
2022/04/13 01:13:58;;;;;;;7.47;2.90;;;14.10;99.90;;;;;;5093007;28;20232;-55
2022/04/13 01:16:25;;;;;;;8.23;2.83;;;14.10;99.90;;;;;;5093591;28;20178;-57
2022/04/13 01:18:52;;;;;;;7.25;3.10;;;14.10;99.90;;;;;;5074980;28;20169;-56
2022/04/13 01:21:20;;;;;;;7.70;2.88;;;14.00;99.90;;;;;;5093103;28;20168;-56
2022/04/13 01:23:47;;;;;;;7.75;3.47;;;14.00;99.90;;;;;;5093308;28;20217;-55
2022/04/13 01:26:13;;;;;;;7.45;2.85;;;14.00;99.90;;;;;;5093280;28;20168;-56
2022/04/13 01:28:38;;;;;;;7.90;3.25;;;14.00;99.90;;;;;;5092956;28;20252;-56
2022/04/13 01:31:05;;;;;;;8.55;4.28;;;14.00;99.90;;;;;;5092914;28;20170;-56
2022/04/13 01:33:31;;;;;;;7.80;2.95;;;13.90;99.90;;;;;;5093197;28;20579;-55
2022/04/13 01:36:00;;;;;;;6.78;2.60;;;13.90;99.90;;;;;;5093114;28;20161;-56
2022/04/13 01:38:27;;;;;;;10.10;3.45;;;13.90;99.90;;;;;;5093419;28;20196;-56
2022/04/13 01:40:54;;;;;;;13.75;7.80;;;13.90;99.90;;;;;;5093125;28;20161;-55
2022/04/13 01:43:19;;;;;;;9.13;4.05;;;13.90;99.90;;;;;;5092713;28;20675;-56
2022/04/13 01:45:45;;;;;;;9.85;4.05;;;13.90;99.90;;;;;;5092905;28;20201;-56
2022/04/13 01:48:10;;;;;;;9.52;4.32;;;13.80;99.90;;;;;;5092641;28;20180;-56
2022/04/13 01:50:36;;;;;;;9.52;3.10;;;13.80;99.90;;;;;;5092621;28;20252;-56
2022/04/13 01:53:02;;;;;;;6.93;3.00;;;13.80;99.90;;;;;;5092760;28;20166;-56
2022/04/13 01:55:27;;;;;;;14.27;3.60;;;13.80;99.90;;;;;;5092442;28;20165;-55
2022/04/13 01:57:53;;;;;;;7.60;3.13;;;13.80;99.90;;;;;;5092715;28;20169;-56
2022/04/13 02:00:18;;;;;;;6.30;3.53;;;13.70;99.90;;;;;;5092467;28;20169;-56
2022/04/13 02:02:45;;;;;;;8.85;3.85;;;13.70;99.90;;;;;;5092379;28;20571;-57
2022/04/13 02:05:12;;;;;;;10.82;4.15;;;13.70;99.90;;;;;;5092228;28;20676;-56
2022/04/13 02:07:38;;;;;;;6.90;3.28;;;13.60;99.90;;;;;;5092337;28;20162;-56
2022/04/13 02:10:05;;;;;;;4.45;2.90;;;13.50;99.90;;;;;;5092372;28;20171;-56
2022/04/13 02:12:32;;;;;;;9.15;3.58;;;13.50;99.90;;;;;;5092155;28;20220;-56
2022/04/13 02:14:57;;;;;;;6.95;3.55;;;13.50;99.90;;;;;;5092545;28;20173;-56
2022/04/13 02:17:24;;;;;;;7.28;3.53;;;13.50;99.90;;;;;;5092494;28;20703;-56
2022/04/13 02:19:49;;;;;;;10.93;3.35;;;13.50;99.90;;;;;;5092203;28;20283;-56
2022/04/13 02:22:15;;;;;;;7.13;3.13;;;13.50;99.90;;;;;;5092156;28;20616;-56
2022/04/13 02:24:40;;;;;;;4.40;2.97;;;13.40;99.90;;;;;;5091974;28;20262;-56
2022/04/13 02:27:09;;;;;;;11.65;2.88;;;13.40;99.90;;;;;;5091675;28;20252;-56
2022/04/13 02:29:36;;;;;;;4.60;2.70;;;13.30;99.90;;;;;;5092168;28;20248;-56
2022/04/13 02:32:05;;;;;;;9.52;3.30;;;13.30;99.90;;;;;;5092017;28;20256;-56
2022/04/13 02:34:32;;;;;;;9.65;2.97;;;13.20;99.90;;;;;;5091950;28;20165;-56
2022/04/13 02:36:57;;;;;;;4.03;2.40;;;13.20;99.90;;;;;;5091981;28;20172;-54
2022/04/13 02:39:23;;;;;;;13.63;3.63;;;13.10;99.90;;;;;;5092207;28;20177;-56
2022/04/13 02:41:49;;;;;;;6.55;3.00;;;13.10;99.90;;;;;;5091955;28;20169;-56
2022/04/13 02:44:14;;;;;;;6.25;3.10;;;13.10;99.90;;;;;;5091804;28;20197;-56
2022/04/13 02:46:41;;;;;;;7.38;2.88;;;13.00;99.90;;;;;;5091960;28;20177;-56
2022/04/13 02:49:07;;;;;;;7.03;2.80;;;13.00;99.90;;;;;;5092126;28;20577;-56
2022/04/13 02:51:32;;;;;;;5.80;2.83;;;13.00;99.90;;;;;;5091840;28;20170;-56
2022/04/13 02:53:58;;;;;;;5.68;2.78;;;13.00;99.90;;;;;;5091866;28;20165;-56
2022/04/13 02:56:23;;;;;;;9.43;3.25;;;13.00;99.90;;;;;;5092056;28;20200;-57
2022/04/13 02:58:49;;;;;;;14.63;3.80;;;13.00;99.90;;;;;;5092120;28;20173;-57
2022/04/13 03:01:14;;;;;;;10.00;3.20;;;13.00;99.90;;;;;;5091839;28;20249;-56
2022/04/13 03:03:40;;;;;;;7.53;2.80;;;12.90;99.90;;;;;;5091885;28;20169;-56
2022/04/13 03:06:05;;;;;;;6.95;2.60;;;12.90;99.90;;;;;;5091798;28;20626;-56
2022/04/13 03:08:31;;;;;;;16.17;3.67;;;12.80;99.90;;;;;;5091934;28;20173;-57
2022/04/13 03:10:56;;;;;;;8.50;2.95;;;12.80;99.90;;;;;;5092074;28;20230;-56
2022/04/13 03:13:22;;;;;;;7.07;2.85;;;12.80;99.90;;;;;;5091868;28;20217;-56
2022/04/13 03:15:48;;;;;;;4.80;3.13;;;12.80;99.90;;;;;;5091621;28;20162;-56
2022/04/13 03:18:13;;;;;;;6.95;3.08;;;12.80;99.90;;;;;;5091651;28;20208;-57
2022/04/13 03:20:39;;;;;;;7.18;3.50;;;12.70;99.90;;;;;;5091627;28;20169;-55
2022/04/13 03:23:04;;;;;;;7.72;3.08;;;12.60;99.90;;;;;;5092038;28;20172;-56
2022/04/13 03:25:30;;;;;;;8.35;2.95;;;12.70;99.90;;;;;;5091556;28;20217;-56
2022/04/13 03:27:56;;;;;;;8.20;3.67;;;12.60;99.90;;;;;;5092059;28;20563;-57
2022/04/13 03:30:23;;;;;;;6.80;3.28;;;12.60;99.90;;;;;;5091493;28;20173;-57
2022/04/13 03:32:50;;;;;;;7.53;3.20;;;12.60;99.90;;;;;;5091833;28;20176;-56
2022/04/13 03:35:15;;;;;;;5.80;2.88;;;12.70;99.90;;;;;;5091714;28;20177;-56
2022/04/13 03:37:41;;;;;;;7.63;3.30;;;12.70;99.90;;;;;;5091420;28;20207;-57
2022/04/13 03:40:09;;;;;;;6.45;2.97;;;12.60;99.90;;;;;;5093489;28;20188;-56
2022/04/13 03:42:38;;;;;;;21.02;15.68;;;12.60;99.90;;;;;;5095112;28;20164;-57
2022/04/13 03:45:13;;;;;;;29.58;20.70;;;12.70;99.90;;;;;;5094911;28;20296;-57
2022/04/13 03:47:40;;;;;;;39.97;26.77;;;12.70;99.90;;;;;;5095012;28;20164;-57
2022/04/13 03:50:07;;;;;;;19.30;8.48;;;12.70;99.90;;;;;;5094914;28;20165;-56
2022/04/13 03:52:36;;;;;;;17.02;7.28;;;12.70;99.90;;;;;;5094891;28;20176;-55
2022/04/13 03:55:06;;;;;;;14.20;9.90;;;12.70;99.90;;;;;;5094983;28;20173;-55
2022/04/13 03:57:32;;;;;;;47.17;35.38;;;12.70;99.90;;;;;;5094971;28;20169;-55
2022/04/13 03:59:58;;;;;;;14.57;5.60;;;12.70;99.90;;;;;;5094807;28;20177;-55
2022/04/13 04:02:23;;;;;;;7.88;3.47;;;12.70;99.90;;;;;;5095049;28;20161;-56
2022/04/13 04:04:49;;;;;;;5.13;2.63;;;12.70;99.90;;;;;;5094535;28;20224;-55
2022/04/13 04:07:16;;;;;;;9.98;3.17;;;12.70;99.90;;;;;;5094611;28;20205;-56
2022/04/13 04:09:42;;;;;;;6.18;3.17;;;12.70;99.90;;;;;;5094530;28;20685;-57
2022/04/13 04:12:08;;;;;;;23.13;18.50;;;12.80;99.90;;;;;;5094365;28;20382;-56
2022/04/13 04:14:34;;;;;;;15.70;10.52;;;12.80;99.90;;;;;;5094435;28;20264;-57
2022/04/13 04:16:59;;;;;;;13.00;10.60;;;12.90;99.90;;;;;;5094399;28;20173;-56
2022/04/13 04:19:25;;;;;;;12.10;7.18;;;12.90;99.90;;;;;;5094605;28;20238;-56
2022/04/13 04:21:50;;;;;;;13.60;6.63;;;13.00;99.90;;;;;;5094233;28;20649;-57
2022/04/13 04:24:16;;;;;;;9.45;4.65;;;13.00;99.90;;;;;;5094124;28;20197;-57
2022/04/13 04:26:43;;;;;;;6.78;4.18;;;13.00;99.90;;;;;;5094222;28;20161;-57
2022/04/13 04:29:09;;;;;;;15.02;7.80;;;13.10;99.90;;;;;;5094117;28;20189;-57
2022/04/13 04:31:49;;;;;;;29.10;17.42;;;13.00;99.90;;;;;;5094061;28;20519;-57
2022/04/13 04:34:15;;;;;;;22.75;14.95;;;13.00;99.90;;;;;;5093909;28;20512;-56
2022/04/13 04:36:41;;;;;;;18.70;12.80;;;13.00;99.90;;;;;;5093956;28;20165;-57
2022/04/13 04:39:07;;;;;;;21.88;15.27;;;13.00;99.90;;;;;;5094080;28;20169;-57
2022/04/13 04:41:33;;;;;;;10.23;6.75;;;13.00;99.90;;;;;;5094060;28;20169;-56
2022/04/13 04:43:58;;;;;;;11.88;6.18;;;13.00;99.90;;;;;;5093825;28;20601;-56
2022/04/13 04:46:24;;;;;;;6.13;4.90;;;13.10;99.90;;;;;;5094156;28;20186;-57
2022/04/13 04:48:49;;;;;;;113.10;80.07;;;13.00;99.90;;;;;;5093720;28;20158;-57
2022/04/13 04:51:15;;;;;;;17.10;11.25;;;13.10;99.90;;;;;;5075139;28;20215;-57
2022/04/13 04:53:41;;;;;;;13.60;6.15;;;13.00;99.90;;;;;;5093414;28;20170;-57
2022/04/13 04:56:07;;;;;;;11.43;3.95;;;13.10;99.90;;;;;;5093527;28;20237;-56
2022/04/13 04:58:33;;;;;;;6.38;3.05;;;13.00;99.90;;;;;;5093562;28;20626;-57
2022/04/13 05:00:58;;;;;;;9.95;4.30;;;13.10;99.90;;;;;;5093815;28;20509;-56
2022/04/13 05:03:24;;;;;;;27.30;13.43;;;13.10;99.90;;;;;;5093821;28;20195;-57
2022/04/13 05:05:49;;;;;;;20.13;11.10;;;13.10;99.90;;;;;;5093241;28;20204;-56
2022/04/13 05:08:15;;;;;;;8.25;3.60;;;13.10;99.90;;;;;;5093456;28;20169;-56
2022/04/13 05:10:50;;;;;;;9.00;3.45;;;13.10;99.90;;;;;;5093245;28;20174;-56
2022/04/13 05:13:19;;;;;;;9.60;3.10;;;13.10;99.90;;;;;;5093177;28;20213;-56
2022/04/13 05:15:45;;;;;;;10.45;3.25;;;13.00;99.90;;;;;;5093249;28;20165;-56
2022/04/13 05:18:12;;;;;;;10.15;3.20;;;13.00;99.90;;;;;;5092908;28;20574;-54
2022/04/13 05:20:37;;;;;;;10.55;3.08;;;13.00;99.90;;;;;;5092831;28;20615;-55
2022/04/13 05:23:03;;;;;;;9.20;5.13;;;13.10;99.90;;;;;;5075004;28;20173;-54
2022/04/13 05:25:29;;;;;;;11.50;5.65;;;13.10;99.90;;;;;;5074777;28;20201;-55
2022/04/13 05:27:54;;;;;;;9.55;5.07;;;13.20;99.90;;;;;;5092969;28;20161;-56
2022/04/13 05:30:20;;;;;;;10.43;3.30;;;13.30;99.90;;;;;;5074489;28;20176;-55
2022/04/13 05:32:50;;;;;;;10.07;3.28;;;13.40;99.90;;;;;;5092554;28;20196;-55
2022/04/13 05:35:17;;;;;;;15.75;3.75;;;13.40;99.90;;;;;;5092504;28;20165;-56
2022/04/13 05:37:42;;;;;;;8.10;3.30;;;13.40;99.90;;;;;;5092626;28;20173;-55
2022/04/13 05:40:09;;;;;;;8.13;3.20;;;13.50;99.90;;;;;;5092736;28;20165;-55
2022/04/13 05:42:34;;;;;;;8.70;2.65;;;13.50;99.90;;;;;;5092672;28;20173;-55
2022/04/13 05:45:00;;;;;;;9.20;3.50;;;13.60;99.90;;;;;;5092458;28;20224;-54
2022/04/13 05:47:26;;;;;;;9.13;3.83;;;13.60;99.90;;;;;;5092927;28;20656;-55
2022/04/13 05:49:52;;;;;;;8.32;3.13;;;13.60;99.90;;;;;;5092462;28;20181;-56
2022/04/13 05:52:17;;;;;;;7.38;3.72;;;13.60;99.90;;;;;;5092443;28;20235;-55
2022/04/13 05:54:43;;;;;;;7.30;3.30;;;13.60;99.90;;;;;;5092500;28;20533;-55
2022/04/13 05:57:08;;;;;;;6.97;3.22;;;13.60;99.90;;;;;;5092477;28;20242;-55
2022/04/13 05:59:35;;;;;;;7.28;3.38;;;13.60;99.90;;;;;;5092538;28;20165;-56
2022/04/13 06:02:02;;;;;;;9.20;4.03;;;13.70;99.90;;;;;;5091531;28;20252;-57
2022/04/13 06:04:27;;;;;;;11.77;3.75;;;13.70;99.90;;;;;;5092628;28;20296;-55
2022/04/13 06:06:56;;;;;;;9.80;4.05;;;13.80;99.90;;;;;;5092683;28;20632;-55
2022/04/13 06:09:22;;;;;;;13.65;3.72;;;13.90;99.90;;;;;;5092547;28;20162;-56
2022/04/13 06:11:51;;;;;;;12.02;4.00;;;13.90;99.90;;;;;;5092301;28;20165;-56
2022/04/13 06:14:17;;;;;;;7.82;3.95;;;14.00;99.90;;;;;;5092210;28;20178;-56
2022/04/13 06:16:42;;;;;;;6.95;3.80;;;14.00;99.90;;;;;;5092513;28;20264;-57
2022/04/13 06:19:08;;;;;;;8.48;3.60;;;14.10;99.90;;;;;;5092187;28;20237;-56
2022/04/13 06:21:34;;;;;;;9.23;4.18;;;14.20;99.90;;;;;;5092483;28;20684;-55
2022/04/13 06:23:59;;;;;;;8.88;4.57;;;14.20;99.90;;;;;;5092034;28;20450;-54
2022/04/13 06:26:25;;;;;;;6.57;3.75;;;14.20;99.90;;;;;;5092367;28;20173;-56
2022/04/13 06:28:51;;;;;;;9.00;4.38;;;14.30;99.90;;;;;;5092017;28;20161;-56
2022/04/13 06:31:17;;;;;;;16.45;5.45;;;14.40;99.90;;;;;;5091930;28;20157;-55
2022/04/13 06:33:42;;;;;;;17.88;5.10;;;14.50;99.90;;;;;;5092004;28;20164;-56
2022/04/13 06:36:08;;;;;;;9.77;4.55;;;14.60;99.90;;;;;;5092163;28;20183;-56
2022/04/13 06:38:34;;;;;;;14.75;4.80;;;14.60;99.90;;;;;;5090551;28;20524;-52
2022/04/13 06:41:00;;;;;;;11.23;4.50;;;14.70;99.90;;;;;;5091922;28;20248;-50
2022/04/13 06:43:26;;;;;;;9.18;4.65;;;14.80;99.90;;;;;;5091986;28;20274;-56
2022/04/13 06:45:54;;;;;;;8.02;4.38;;;14.90;99.90;;;;;;5091652;28;20200;-52
2022/04/13 06:48:21;;;;;;;8.55;4.97;;;15.00;99.90;;;;;;5091725;28;20581;-52
2022/04/13 06:50:46;;;;;;;17.05;5.43;;;15.10;99.90;;;;;;5091884;28;20173;-49
2022/04/13 06:53:14;;;;;;;11.25;4.72;;;15.20;99.90;;;;;;5091557;28;20244;-50
2022/04/13 06:55:40;;;;;;;17.73;5.40;;;15.30;99.90;;;;;;5091814;28;20169;-50
2022/04/13 06:58:07;;;;;;;17.42;6.18;;;15.40;99.90;;;;;;5091709;28;20642;-48
2022/04/13 07:00:34;;;;;;;18.90;5.13;;;15.40;99.90;;;;;;5091483;28;20174;-49
2022/04/13 07:02:59;;;;;;;15.30;5.60;;;15.50;99.90;;;;;;5091835;28;20524;-51
2022/04/13 07:05:26;;;;;;;13.27;5.10;;;15.60;99.90;;;;;;5091698;28;20205;-50
2022/04/13 07:07:51;;;;;;;13.55;5.65;;;15.70;99.90;;;;;;5091201;28;20158;-50
2022/04/13 07:10:17;;;;;;;14.27;5.68;;;15.80;99.90;;;;;;5073219;28;20181;-50
2022/04/13 07:12:42;;;;;;;16.77;5.18;;;15.90;99.90;;;;;;5091231;28;20213;-50
2022/04/13 07:15:10;;;;;;;10.32;5.05;;;16.00;99.90;;;;;;5095152;28;20172;-51
2022/04/13 07:17:35;;;;;;;10.27;5.18;;;16.00;99.90;;;;;;5095192;28;20252;-50
2022/04/13 07:20:03;;;;;;;18.52;6.07;;;16.10;99.90;;;;;;5095270;28;20264;-51
2022/04/13 07:22:28;;;;;;;10.88;5.70;;;16.20;99.90;;;;;;5095150;28;20534;-51
2022/04/13 07:24:54;;;;;;;16.52;5.88;;;16.20;99.90;;;;;;5095514;28;20208;-50
2022/04/13 07:27:20;;;;;;;14.82;6.35;;;16.20;99.90;;;;;;5095362;28;20614;-50
2022/04/13 07:29:46;;;;;;;14.45;5.80;;;16.30;99.90;;;;;;5094962;28;20256;-50
2022/04/13 07:32:11;;;;;;;14.73;5.90;;;16.40;99.90;;;;;;5095157;28;20254;-49
2022/04/13 07:34:37;;;;;;;14.38;5.75;;;16.50;99.90;;;;;;5095091;28;20176;-51
2022/04/13 07:37:05;;;;;;;12.63;5.60;;;16.60;99.90;;;;;;5094937;28;20166;-49
2022/04/13 07:39:31;;;;;;;18.75;6.50;;;16.60;99.90;;;;;;5095085;28;20184;-50
2022/04/13 07:41:56;;;;;;;19.95;5.32;;;16.60;99.90;;;;;;5095091;28;20162;-51
2022/04/13 07:44:22;;;;;;;12.73;5.82;;;16.70;99.90;;;;;;5094898;28;20250;-50
2022/04/13 07:46:47;;;;;;;14.07;6.13;;;16.80;99.90;;;;;;5094586;28;20173;-50
2022/04/13 07:49:13;;;;;;;11.35;5.55;;;16.90;99.90;;;;;;5094441;28;20188;-50
2022/04/13 07:51:41;;;;;;;17.35;5.90;;;16.90;99.90;;;;;;5094577;28;20162;-50
2022/04/13 07:54:07;;;;;;;17.63;5.65;;;17.00;99.90;;;;;;5094637;28;20209;-50
2022/04/13 07:56:33;;;;;;;12.70;6.05;;;17.00;99.90;;;;;;5094441;28;20193;-50
2022/04/13 07:58:58;;;;;;;15.57;6.07;;;16.90;99.90;;;;;;5094447;28;20161;-50
2022/04/13 08:01:24;;;;;;;14.27;5.97;;;16.90;99.90;;;;;;5094795;28;20166;-50
2022/04/13 08:03:50;;;;;;;15.43;5.45;;;16.80;99.90;;;;;;5094213;28;20198;-51
2022/04/13 08:06:15;;;;;;;15.38;6.05;;;16.80;99.90;;;;;;5094578;28;20200;-50
2022/04/13 08:08:41;;;;;;;16.40;5.60;;;16.90;99.90;;;;;;5094107;28;20526;-50
2022/04/13 08:11:07;;;;;;;13.73;5.63;;;17.00;99.90;;;;;;5094319;28;20255;-50
2022/04/13 08:13:33;;;;;;;16.98;6.60;;;17.00;99.90;;;;;;5075927;28;20216;-50
2022/04/13 08:15:59;;;;;;;17.23;6.10;;;17.20;99.90;;;;;;5094070;28;20185;-49
2022/04/13 08:18:24;;;;;;;16.45;5.85;;;17.50;99.90;;;;;;5093207;28;20166;-50
2022/04/13 08:20:50;;;;;;;9.93;5.22;;;17.50;99.90;;;;;;5094072;28;20174;-50
2022/04/13 08:23:16;;;;;;;18.33;6.53;;;17.50;99.90;;;;;;5093819;28;20215;-50
2022/04/13 08:25:42;;;;;;;17.73;6.45;;;17.60;99.90;;;;;;5093117;28;20662;-50
2022/04/13 08:28:07;;;;;;;13.73;6.82;;;17.60;99.90;;;;;;5094010;28;20199;-50
2022/04/13 08:30:33;;;;;;;14.30;6.22;;;17.80;99.90;;;;;;5093932;28;20172;-50
2022/04/13 08:32:59;;;;;;;17.58;7.50;;;18.00;99.90;;;;;;5093787;28;20188;-49
2022/04/13 08:35:24;;;;;;;17.38;6.97;;;18.20;99.90;;;;;;5094076;28;20174;-49
2022/04/13 08:37:50;;;;;;;18.13;6.80;;;18.20;99.90;;;;;;5093792;28;20169;-50
2022/04/13 08:40:17;;;;;;;14.57;6.97;;;18.40;99.90;;;;;;5092320;28;20661;-50
2022/04/13 08:43:07;;;;;;;16.40;6.43;;;18.50;99.90;;;;;;5093752;28;20177;-50
2022/04/13 08:46:01;;;;;;;17.50;7.22;;;18.60;99.90;;;;;;5093404;28;20213;-50
2022/04/13 08:48:27;;;;;;;16.20;6.97;;;18.80;99.90;;;;;;5090117;28;20184;-51
2022/04/13 08:51:02;;;;;;;16.58;7.07;;;19.10;99.90;;;;;;5093901;28;20282;-50
2022/04/13 08:53:35;;;;;;;22.35;7.43;;;19.20;99.90;;;;;;5093345;28;20161;-49
2022/04/13 08:56:03;;;;;;;15.52;7.05;;;19.40;99.90;;;;;;5093356;28;20161;-51
2022/04/13 08:58:54;;;;;;;19.98;7.32;;;19.50;99.90;;;;;;5093310;28;20298;-49
2022/04/13 09:01:38;;;;;;;16.83;8.10;;;19.70;99.90;;;;;;5092918;28;20172;-50
2022/04/13 09:04:10;;;;;;;20.65;8.13;;;19.80;99.90;;;;;;5092982;28;20212;-50
2022/04/13 09:06:38;;;;;;;18.95;8.18;;;20.00;99.90;;;;;;5092997;28;20192;-51
2022/04/13 09:09:08;;;;;;;15.73;7.13;;;20.10;99.90;;;;;;5093040;28;20274;-50
2022/04/13 09:11:38;;;;;;;15.63;7.20;;;20.20;99.90;;;;;;5093073;28;20170;-50
2022/04/13 09:14:04;;;;;;;15.05;6.57;;;20.30;99.90;;;;;;5092810;28;20690;-50
2022/04/13 09:16:31;;;;;;;14.50;6.90;;;20.40;99.90;;;;;;5093065;28;20693;-50
2022/04/13 09:18:57;;;;;;;14.63;6.60;;;20.40;99.90;;;;;;5093177;28;20248;-50
2022/04/13 09:21:25;;;;;;;17.73;7.03;;;20.00;99.90;;;;;;5092673;28;20207;-50
2022/04/13 09:23:51;;;;;;;13.35;6.90;;;19.90;99.90;;;;;;5092365;28;20752;-50
2022/04/13 09:26:19;;;;;;;19.58;7.68;;;19.80;99.90;;;;;;5093040;28;20255;-50
2022/04/13 09:28:44;;;;;;;15.30;7.22;;;19.60;99.90;;;;;;5092828;28;20633;-51
2022/04/13 09:31:10;;;;;;;19.95;8.77;;;19.50;99.90;;;;;;5092605;28;20180;-50
2022/04/13 09:33:36;;;;;;;15.00;7.60;;;19.50;99.90;;;;;;5092718;28;20189;-50
2022/04/13 09:36:01;;;;;;;19.40;9.10;;;19.40;99.90;;;;;;5092656;28;20661;-50
2022/04/13 09:38:28;;;;;;;19.05;7.93;;;19.40;99.90;;;;;;5092676;28;20195;-49
2022/04/13 09:40:54;;;;;;;17.20;7.63;;;19.40;99.90;;;;;;5092688;28;20153;-50
2022/04/13 09:43:24;;;;;;;12.38;7.68;;;19.50;99.90;;;;;;5092049;28;20585;-49
2022/04/13 09:45:51;;;;;;;18.58;7.78;;;19.40;99.90;;;;;;5092406;28;20232;-50
2022/04/13 09:48:22;;;;;;;14.82;7.32;;;19.50;99.90;;;;;;5092494;28;20169;-51
2022/04/13 09:50:49;;;;;;;17.85;8.10;;;19.50;99.90;;;;;;5092303;28;20641;-50
2022/04/13 09:53:17;;;;;;;20.20;7.88;;;19.50;99.90;;;;;;5092445;28;20169;-50
2022/04/13 09:55:53;;;;;;;15.93;8.23;;;19.60;99.90;;;;;;5074605;28;20566;-50
2022/04/13 09:58:22;;;;;;;17.13;7.85;;;19.60;99.90;;;;;;5092344;28;20172;-49
2022/04/13 10:00:50;;;;;;;13.63;6.97;;;19.80;99.90;;;;;;5092484;28;20173;-50
2022/04/13 10:03:20;;;;;;;15.35;6.70;;;19.70;99.90;;;;;;5092555;28;20185;-50
2022/04/13 10:05:51;;;;;;;14.63;6.90;;;19.70;99.90;;;;;;5091974;28;20208;-50
2022/04/13 10:08:22;;;;;;;16.95;7.43;;;19.80;99.90;;;;;;5092196;28;20192;-50
2022/04/13 10:10:49;;;;;;;19.15;7.97;;;19.90;99.90;;;;;;5073902;28;20165;-51
2022/04/13 10:13:43;;;;;;;16.75;7.60;;;19.90;99.90;;;;;;5091877;28;20209;-51
2022/04/13 10:16:14;;;;;;;15.10;7.68;;;19.90;99.90;;;;;;5092106;28;20193;-50
2022/04/13 10:18:56;;;;;;;16.67;7.68;;;19.80;99.90;;;;;;5091824;28;20207;-51
2022/04/13 10:21:43;;;;;;;14.90;7.90;;;19.70;99.90;;;;;;5092045;28;20162;-50
2022/04/13 10:24:23;;;;;;;14.85;8.00;;;20.00;99.90;;;;;;5091850;28;20200;-50
2022/04/13 10:27:09;;;;;;;17.40;7.82;;;19.80;99.90;;;;;;5091860;28;20175;-50
2022/04/13 10:29:40;;;;;;;16.08;7.90;;;20.20;99.90;;;;;;5092183;28;20177;-50
2022/04/13 10:32:14;;;;;;;14.25;8.25;;;20.50;99.90;;;;;;5092020;28;20523;-50
2022/04/13 10:34:50;;;;;;;23.48;9.02;;;20.20;99.90;;;;;;5092066;28;20202;-50
2022/04/13 10:37:18;;;;;;;14.50;7.80;;;20.20;99.90;;;;;;5091796;28;20184;-50
2022/04/13 10:39:46;;;;;;;16.23;7.35;;;20.20;99.90;;;;;;5091752;28;20180;-51
2022/04/13 10:42:13;;;;;;;15.95;7.80;;;20.10;99.90;;;;;;5091986;28;20180;-50
2022/04/13 10:44:48;;;;;;;16.10;7.25;;;20.10;99.90;;;;;;5091664;28;20664;-50
2022/04/13 10:47:18;;;;;;;11.57;7.40;;;20.30;99.90;;;;;;5091667;28;20264;-50
2022/04/13 10:50:02;;;;;;;14.27;7.75;;;20.50;99.90;;;;;;5094145;28;20629;-50
2022/04/13 10:52:42;;;;;;;13.60;7.07;;;20.40;99.90;;;;;;5095856;28;20174;-50
2022/04/13 10:55:12;;;;;;;16.92;7.38;;;20.40;99.90;;;;;;5077732;28;20252;-50
2022/04/13 10:57:47;;;;;;;15.18;7.65;;;20.30;99.90;;;;;;5095736;28;20172;-50
2022/04/13 11:00:17;;;;;;;10.50;6.47;;;20.20;99.90;;;;;;5095644;28;20164;-51
2022/04/13 11:02:47;;;;;;;12.80;6.82;;;20.20;99.90;;;;;;5095451;28;20532;-50
2022/04/13 11:05:13;;;;;;;14.20;6.88;;;20.20;99.90;;;;;;5095340;28;20684;-50
2022/04/13 11:07:39;;;;;;;14.23;6.68;;;20.30;99.90;;;;;;5095519;28;20169;-50
2022/04/13 11:10:11;;;;;;;11.07;5.75;;;20.70;99.90;;;;;;5095404;28;20227;-50
2022/04/13 11:12:37;;;;;;;10.10;5.30;;;20.90;99.90;;;;;;5095366;28;20213;-50
2022/04/13 11:15:03;;;;;;;13.27;5.70;;;20.70;99.90;;;;;;5095283;28;20223;-50
2022/04/13 11:17:29;;;;;;;11.27;5.07;;;20.70;99.90;;;;;;5095514;28;20161;-50
2022/04/13 11:20:17;;;;;;;11.57;5.47;;;20.50;99.90;;;;;;5095685;28;20622;-50
2022/04/13 11:22:43;;;;;;;16.00;5.70;;;20.40;99.90;;;;;;5095412;28;20187;-51
2022/04/13 11:25:09;;;;;;;11.25;6.25;;;20.60;99.90;;;;;;5076649;28;20673;-51
2022/04/13 11:27:51;;;;;;;14.90;6.65;;;20.70;99.90;;;;;;5095164;28;20165;-50
2022/04/13 11:30:17;;;;;;;12.82;6.28;;;21.10;99.90;;;;;;5095225;28;20247;-50
2022/04/13 11:32:44;;;;;;;11.35;5.05;;;21.40;99.90;;;;;;5094951;28;20185;-50
2022/04/13 11:35:23;;;;;;;12.63;4.70;;;21.30;99.90;;;;;;5076889;28;20185;-50
2022/04/13 11:38:06;;;;;;;12.55;4.88;;;21.30;99.90;;;;;;5095244;28;20188;-51
2022/04/13 11:40:32;;;;;;;15.18;5.22;;;21.00;99.90;;;;;;5095143;28;20205;-50
2022/04/13 11:43:03;;;;;;;10.52;4.80;;;20.80;99.90;;;;;;5095039;28;20172;-50
2022/04/13 11:45:29;;;;;;;8.60;4.50;;;20.70;99.90;;;;;;5093700;28;20271;-50
2022/04/13 11:47:58;;;;;;;14.20;5.18;;;20.70;99.90;;;;;;5094328;28;20630;-50
2022/04/13 11:50:32;;;;;;;10.32;5.50;;;21.00;99.90;;;;;;5076220;28;20177;-51
2022/04/13 11:53:06;;;;;;;10.95;5.70;;;21.00;99.90;;;;;;5094573;28;20709;-50
2022/04/13 11:55:34;;;;;;;9.48;5.25;;;21.10;99.90;;;;;;5094691;28;20199;-50
2022/04/13 11:58:09;;;;;;;12.95;5.78;;;21.30;99.90;;;;;;5094563;28;20165;-50
2022/04/13 12:00:52;;;;;;;11.45;4.97;;;21.30;99.90;;;;;;5092810;28;20172;-50
2022/04/13 12:03:41;;;;;;;10.70;4.93;;;21.30;99.90;;;;;;5094449;28;20264;-50
2022/04/13 12:06:12;;;;;;;15.10;5.63;;;21.60;99.90;;;;;;5094091;28;20205;-49
2022/04/13 12:08:51;;;;;;;16.88;6.30;;;21.70;99.90;;;;;;5094004;28;20248;-49
2022/04/13 12:11:19;;;;;;;14.85;5.20;;;21.90;99.90;;;;;;5094050;28;20504;-50
2022/04/13 12:13:47;;;;;;;14.65;4.95;;;22.10;99.90;;;;;;5093854;28;20209;-50
2022/04/13 12:16:19;;;;;;;15.63;5.30;;;22.50;99.90;;;;;;5093861;28;20165;-50
2022/04/13 12:18:45;;;;;;;12.02;5.15;;;22.40;99.90;;;;;;5093656;28;20626;-51
2022/04/13 12:21:12;;;;;;;12.65;4.97;;;22.30;99.90;;;;;;5094415;28;20204;-50
2022/04/13 12:23:39;;;;;;;13.27;4.60;;;22.60;99.90;;;;;;5093823;28;20161;-51
2022/04/13 12:26:06;;;;;;;15.27;5.40;;;22.60;99.90;;;;;;5094031;28;20227;-50
2022/04/13 12:28:32;;;;;;;13.38;4.40;;;22.60;99.90;;;;;;5093420;28;20197;-50
2022/04/13 12:31:01;;;;;;;15.52;5.70;;;22.30;99.90;;;;;;5075595;28;20178;-51
2022/04/13 12:33:28;;;;;;;13.52;5.05;;;21.90;99.90;;;;;;5094086;28;20161;-50
2022/04/13 12:36:05;;;;;;;10.73;4.50;;;21.80;99.90;;;;;;5093983;28;20690;-51
2022/04/13 12:38:33;;;;;;;14.73;5.20;;;21.90;99.90;;;;;;5093541;28;20521;-50
2022/04/13 12:41:13;;;;;;;15.48;5.00;;;21.90;99.90;;;;;;5075598;28;20170;-51
2022/04/13 12:43:41;;;;;;;13.40;4.45;;;22.00;99.90;;;;;;5093248;28;20663;-50